Gill, Indiana
Current Conditions -  °F | °C
As of 5:35 AM on Monday 22 Dec 2014 (Local Time) from KRSV Reporting Station
Overcast Overcast  
Wind Chill: 29°   Ceiling: 6500
Heat Index: 34°   Visibility: 10mi
Dew Point: 30°   Wind: 6mph
Humidity: 87%   Direction: 100°E
Pressure: 29.95"   Gusts: NA
Location:  39.0138°N, 87.523°W
Report Text: KRSV 221035Z AUTO 10005KT 10SM OVC065 01/M01 A2995 RMK AO2 T00101009
Loading
Personal Weather Stations






























Interactive Weather Map New forecast layout! Learn more

10-Day Weather Forecast

Advertisements
Track Severe Weather on mobile